Time;durP1;ratioP1;P1;durP2;ratioP2;P2;SDS_P1;SDS_P2;PMS_P1;PMS_P2;Temp;Humidity;BMP_temperature;BMP_pressure;BME280_temperature;BME280_humidity;BME280_pressure;Samples;Min_cycle;Max_cycle;Signal;HPM_P1;HPM_P2
2023/05/10 00:02:07;;;;;;;12.67;8.20;;;13.60;99.90;;;;;;5075110;28;20168;-72
2023/05/10 00:04:33;;;;;;;11.93;8.13;;;13.60;99.90;;;;;;5075265;28;20172;-73
2023/05/10 00:06:58;;;;;;;13.23;8.77;;;13.70;99.90;;;;;;5075235;28;20168;-71
2023/05/10 00:09:24;;;;;;;13.17;8.20;;;13.60;99.90;;;;;;5056934;28;20172;-73
2023/05/10 00:11:49;;;;;;;11.40;8.27;;;13.60;99.90;;;;;;5075135;28;20172;-70
2023/05/10 00:14:15;;;;;;;16.60;8.27;;;13.60;99.90;;;;;;5056943;28;20282;-72
2023/05/10 00:16:41;;;;;;;9.10;8.13;;;13.60;99.90;;;;;;5074924;28;20184;-72
2023/05/10 00:19:07;;;;;;;16.20;9.50;;;13.70;99.90;;;;;;5074537;28;20244;-73
2023/05/10 00:21:33;;;;;;;13.37;8.97;;;13.70;99.90;;;;;;5074944;28;20187;-72
2023/05/10 00:23:59;;;;;;;13.57;9.20;;;13.60;99.90;;;;;;5074568;28;20207;-72
2023/05/10 00:26:25;;;;;;;12.60;8.67;;;13.60;99.90;;;;;;5074747;28;20225;-72
2023/05/10 00:28:51;;;;;;;11.87;8.83;;;13.70;99.90;;;;;;5074772;28;20184;-73
2023/05/10 00:31:16;;;;;;;13.37;8.83;;;13.80;99.90;;;;;;5056956;28;20180;-74
2023/05/10 00:33:42;;;;;;;13.00;9.43;;;13.90;99.90;;;;;;5074672;28;20200;-73
2023/05/10 00:36:08;;;;;;;14.23;9.77;;;14.00;99.90;;;;;;5074731;28;20642;-73
2023/05/10 00:38:34;;;;;;;14.07;8.90;;;13.90;99.90;;;;;;5074185;28;20169;-73
2023/05/10 00:40:59;;;;;;;18.30;9.50;;;13.80;99.90;;;;;;5074611;28;20168;-73
2023/05/10 00:43:25;;;;;;;13.90;9.03;;;13.80;99.90;;;;;;5074387;28;20169;-73
2023/05/10 00:45:51;;;;;;;12.67;9.27;;;13.70;99.90;;;;;;5073691;28;20630;-72
2023/05/10 00:48:16;;;;;;;19.87;9.50;;;13.60;99.90;;;;;;5056372;28;20564;-71
2023/05/10 00:50:42;;;;;;;15.50;9.80;;;13.60;99.90;;;;;;5056392;28;20258;-71
2023/05/10 00:53:08;;;;;;;13.17;9.07;;;13.60;99.90;;;;;;5055780;28;20177;-72
2023/05/10 00:55:34;;;;;;;15.33;9.77;;;13.60;99.90;;;;;;5073713;28;20204;-72
2023/05/10 00:58:01;;;;;;;15.67;9.07;;;13.60;99.90;;;;;;5055608;28;20180;-73
2023/05/10 01:00:27;;;;;;;17.57;10.30;;;13.70;99.90;;;;;;5073460;28;20203;-72
2023/05/10 01:02:53;;;;;;;17.30;10.77;;;13.70;99.90;;;;;;5073529;28;20173;-72
2023/05/10 01:05:19;;;;;;;18.00;9.27;;;13.80;99.90;;;;;;5074041;28;20625;-73
2023/05/10 01:07:46;;;;;;;14.57;9.87;;;13.80;99.90;;;;;;5073739;28;20175;-72
2023/05/10 01:10:11;;;;;;;14.70;9.87;;;13.80;99.90;;;;;;5073906;28;20173;-72
2023/05/10 01:12:40;;;;;;;16.87;10.40;;;13.70;99.90;;;;;;5073793;28;20176;-72
2023/05/10 01:15:08;;;;;;;13.13;10.10;;;13.60;99.90;;;;;;5073786;28;20200;-72
2023/05/10 01:17:35;;;;;;;15.07;10.30;;;13.60;99.90;;;;;;5073761;28;20211;-73
2023/05/10 01:20:01;;;;;;;14.60;10.77;;;13.60;99.90;;;;;;5073011;28;20251;-73
2023/05/10 01:22:39;;;;;;;12.83;10.10;;;13.70;99.90;;;;;;5072559;28;20169;-72
2023/05/10 01:25:31;;;;;;;14.00;10.27;;;13.70;99.90;;;;;;5054986;28;20172;-72
2023/05/10 01:28:19;;;;;;;17.57;10.97;;;13.70;99.90;;;;;;5054862;28;20169;-72
2023/05/10 01:31:01;;;;;;;15.90;10.40;;;13.90;99.90;;;;;;5055122;28;20164;-72
2023/05/10 01:33:42;;;;;;;17.73;10.83;;;13.80;99.90;;;;;;5054832;28;20260;-72
2023/05/10 01:36:38;;;;;;;15.77;11.17;;;13.70;99.90;;;;;;5054862;28;20176;-72
2023/05/10 01:39:25;;;;;;;14.90;11.57;;;13.80;99.90;;;;;;5054684;28;20230;-72
2023/05/10 01:41:55;;;;;;;15.83;11.70;;;13.80;99.90;;;;;;5072521;28;20203;-71
2023/05/10 01:44:31;;;;;;;17.97;11.57;;;13.70;99.90;;;;;;5054758;28;20188;-71
2023/05/10 01:47:17;;;;;;;16.03;12.23;;;13.80;99.90;;;;;;5072558;28;20168;-71
2023/05/10 01:49:54;;;;;;;17.63;12.50;;;13.80;99.90;;;;;;5072735;28;20164;-71
2023/05/10 01:52:26;;;;;;;18.67;12.47;;;13.80;99.90;;;;;;5072190;28;20175;-71
2023/05/10 01:55:13;;;;;;;16.43;11.67;;;13.90;99.90;;;;;;5072343;28;20664;-71
2023/05/10 01:57:42;;;;;;;14.83;11.47;;;13.80;99.90;;;;;;5072233;28;20255;-71
2023/05/10 02:00:09;;;;;;;19.07;11.90;;;13.70;99.90;;;;;;5072395;28;20244;-71
2023/05/10 02:02:42;;;;;;;15.03;11.93;;;13.80;99.90;;;;;;5072547;28;20184;-71
2023/05/10 02:05:08;;;;;;;17.47;12.83;;;13.70;99.90;;;;;;5071214;28;20550;-71
2023/05/10 02:07:36;;;;;;;18.50;12.07;;;13.70;99.90;;;;;;5071768;28;20180;-71
2023/05/10 02:10:05;;;;;;;16.67;12.03;;;13.70;99.90;;;;;;5054161;28;20179;-71
2023/05/10 02:12:34;;;;;;;16.03;12.87;;;13.70;99.90;;;;;;5054125;28;20211;-71
2023/05/10 02:15:02;;;;;;;18.97;13.53;;;13.80;99.90;;;;;;5055155;28;20215;-71
2023/05/10 02:17:30;;;;;;;17.40;12.80;;;13.90;99.90;;;;;;5054012;28;20196;-71
2023/05/10 02:19:58;;;;;;;18.13;12.37;;;13.90;99.90;;;;;;5010067;28;1165253;-71
2023/05/10 02:22:25;;;;;;;20.37;12.57;;;13.80;99.90;;;;;;5051451;28;20173;-71
2023/05/10 02:24:51;;;;;;;16.40;12.20;;;13.80;99.90;;;;;;5052836;28;20204;-72
2023/05/10 02:27:19;;;;;;;16.53;11.77;;;13.90;99.90;;;;;;5052867;28;20157;-72
2023/05/10 02:29:45;;;;;;;14.40;12.07;;;13.80;99.90;;;;;;5051623;28;20263;-72
2023/05/10 02:32:12;;;;;;;16.63;12.00;;;13.80;99.90;;;;;;5051506;28;20645;-72
2023/05/10 02:34:39;;;;;;;17.30;12.70;;;13.80;99.90;;;;;;5051190;28;20215;-72
2023/05/10 02:37:06;;;;;;;16.87;12.10;;;13.80;99.90;;;;;;5052620;28;20168;-70
2023/05/10 02:39:32;;;;;;;15.37;11.70;;;13.70;99.90;;;;;;5051520;28;20173;-70
2023/05/10 02:41:59;;;;;;;16.50;11.60;;;13.70;99.90;;;;;;5051045;28;20169;-72
2023/05/10 02:44:26;;;;;;;20.27;12.40;;;13.80;99.90;;;;;;5052758;28;20174;-70
2023/05/10 02:46:52;;;;;;;18.57;11.77;;;13.70;99.90;;;;;;5052702;28;20201;-72
2023/05/10 02:49:18;;;;;;;16.73;12.20;;;13.80;99.90;;;;;;5052322;28;20174;-72
2023/05/10 02:52:02;;;;;;;18.30;11.90;;;13.80;99.90;;;;;;5052300;28;20173;-72
2023/05/10 02:54:31;;;;;;;17.03;11.43;;;13.80;99.90;;;;;;5052436;28;20769;-72
2023/05/10 02:57:01;;;;;;;14.87;11.90;;;13.80;99.90;;;;;;5051323;28;20170;-72
2023/05/10 02:59:27;;;;;;;16.30;11.93;;;13.80;99.90;;;;;;5051538;28;20174;-71
2023/05/10 03:01:53;;;;;;;16.83;11.87;;;13.80;99.90;;;;;;5052507;28;20175;-72
2023/05/10 03:04:19;;;;;;;15.03;10.97;;;13.80;99.90;;;;;;5052007;28;20215;-72
2023/05/10 03:06:45;;;;;;;15.73;10.97;;;13.70;99.90;;;;;;5052481;28;20169;-72
2023/05/10 03:09:12;;;;;;;14.20;11.17;;;13.70;99.90;;;;;;5054427;28;20177;-72
2023/05/10 03:12:00;;;;;;;16.27;11.10;;;13.70;99.90;;;;;;5056266;28;20167;-71
2023/05/10 03:15:04;;;;;;;14.30;11.33;;;13.60;99.90;;;;;;5054502;28;20215;-71
2023/05/10 03:17:47;;;;;;;15.97;11.03;;;13.70;99.90;;;;;;5054562;28;20189;-71
2023/05/10 03:20:21;;;;;;;15.97;11.40;;;13.60;99.90;;;;;;5064837;28;20238;-71
2023/05/10 03:23:04;;;;;;;15.40;11.93;;;13.70;99.90;;;;;;5075565;28;20662;-71
2023/05/10 03:25:31;;;;;;;15.13;11.57;;;13.80;99.90;;;;;;5075908;28;20203;-71
2023/05/10 03:27:57;;;;;;;15.90;11.77;;;13.80;99.90;;;;;;5075632;28;20188;-71
2023/05/10 03:30:24;;;;;;;16.70;12.17;;;13.70;99.90;;;;;;5075437;28;20247;-71
2023/05/10 03:32:50;;;;;;;16.70;11.77;;;13.60;99.90;;;;;;5075325;28;20234;-72
2023/05/10 03:35:15;;;;;;;19.17;12.67;;;13.60;99.90;;;;;;5075533;28;20606;-70
2023/05/10 03:37:41;;;;;;;20.20;12.00;;;13.50;99.90;;;;;;5075441;28;20299;-70
2023/05/10 03:40:08;;;;;;;16.27;11.83;;;13.60;99.90;;;;;;5075175;28;20222;-70
2023/05/10 03:42:33;;;;;;;16.43;12.77;;;13.60;99.90;;;;;;5075346;28;20248;-72
2023/05/10 03:44:59;;;;;;;17.17;13.47;;;13.50;99.90;;;;;;5057422;28;20275;-70
2023/05/10 03:47:24;;;;;;;21.50;14.67;;;13.50;99.90;;;;;;5074745;28;20251;-69
2023/05/10 03:49:50;;;;;;;22.03;14.93;;;13.50;99.90;;;;;;5075031;28;20655;-70
2023/05/10 03:52:16;;;;;;;21.60;13.73;;;13.50;99.90;;;;;;5074845;28;20164;-71
2023/05/10 03:54:41;;;;;;;22.23;14.73;;;13.50;99.90;;;;;;5056815;28;20668;-71
2023/05/10 03:57:07;;;;;;;24.80;16.37;;;13.50;99.90;;;;;;5057042;28;20173;-71
2023/05/10 03:59:32;;;;;;;23.90;16.73;;;13.50;99.90;;;;;;5074991;28;20234;-71
2023/05/10 04:01:58;;;;;;;24.10;16.90;;;13.40;99.90;;;;;;5074445;28;20196;-71
2023/05/10 04:04:24;;;;;;;21.67;16.03;;;13.30;99.90;;;;;;5074864;28;20665;-71
2023/05/10 04:06:49;;;;;;;25.67;16.80;;;13.30;99.90;;;;;;5074863;28;20570;-71
2023/05/10 04:09:16;;;;;;;26.27;17.83;;;13.20;99.90;;;;;;5074660;28;20172;-71
2023/05/10 04:11:42;;;;;;;25.03;17.10;;;13.20;99.90;;;;;;5073902;28;20550;-71
2023/05/10 04:14:08;;;;;;;24.77;17.87;;;13.30;99.90;;;;;;5074708;28;20204;-71
2023/05/10 04:16:34;;;;;;;25.10;18.00;;;13.30;99.90;;;;;;5074192;28;20176;-71
2023/05/10 04:18:59;;;;;;;31.27;18.40;;;13.40;99.90;;;;;;5073475;28;20242;-72
2023/05/10 04:21:25;;;;;;;29.37;18.73;;;13.40;99.90;;;;;;5073693;28;20700;-72
2023/05/10 04:23:51;;;;;;;25.70;18.27;;;13.40;99.90;;;;;;5056256;28;20172;-72
2023/05/10 04:26:16;;;;;;;28.10;18.00;;;13.40;99.90;;;;;;5074698;28;20165;-72
2023/05/10 04:28:42;;;;;;;29.43;18.07;;;13.40;99.90;;;;;;5056315;28;20707;-72
2023/05/10 04:31:09;;;;;;;27.97;17.93;;;13.40;99.90;;;;;;5073873;28;20169;-71
2023/05/10 04:33:35;;;;;;;28.63;18.67;;;13.50;99.90;;;;;;5073915;28;20165;-71
2023/05/10 04:36:01;;;;;;;30.10;19.43;;;13.50;99.90;;;;;;5074341;28;20172;-71
2023/05/10 04:38:27;;;;;;;25.23;18.07;;;13.50;99.90;;;;;;5074114;28;20216;-71
2023/05/10 04:40:53;;;;;;;29.20;19.13;;;13.50;99.90;;;;;;5055973;28;20176;-72
2023/05/10 04:43:21;;;;;;;26.33;18.30;;;13.50;99.90;;;;;;5073745;28;20194;-71
2023/05/10 04:45:46;;;;;;;32.07;20.23;;;13.60;99.90;;;;;;5072879;28;20186;-71
2023/05/10 04:48:12;;;;;;;28.20;19.33;;;13.70;99.90;;;;;;5073382;28;20595;-71
2023/05/10 04:50:39;;;;;;;31.37;19.13;;;13.80;99.90;;;;;;5074049;28;20173;-71
2023/05/10 04:53:05;;;;;;;29.30;18.67;;;13.80;99.90;;;;;;5073568;28;20184;-72
2023/05/10 04:55:30;;;;;;;31.10;20.70;;;13.90;99.90;;;;;;5073126;28;20675;-72
2023/05/10 04:57:57;;;;;;;33.00;20.60;;;13.90;99.90;;;;;;5073360;28;20215;-73
2023/05/10 05:00:23;;;;;;;29.40;19.97;;;14.00;99.90;;;;;;5073201;28;20719;-71
2023/05/10 05:02:48;;;;;;;30.10;20.77;;;14.00;99.90;;;;;;5072979;28;20168;-71
2023/05/10 05:05:14;;;;;;;29.27;19.97;;;14.10;99.90;;;;;;5072994;28;20168;-72
2023/05/10 05:07:40;;;;;;;28.70;20.47;;;14.10;99.90;;;;;;5073450;28;20620;-71
2023/05/10 05:10:07;;;;;;;30.40;19.93;;;14.20;99.90;;;;;;5073195;28;20218;-71
2023/05/10 05:12:32;;;;;;;29.93;20.13;;;14.20;99.90;;;;;;5072771;28;20635;-72
2023/05/10 05:14:58;;;;;;;24.97;18.97;;;14.30;99.90;;;;;;5073099;28;20222;-72
2023/05/10 05:17:24;;;;;;;27.27;20.17;;;14.20;99.90;;;;;;5072899;28;20199;-72
2023/05/10 05:19:49;;;;;;;29.30;20.67;;;14.30;99.90;;;;;;5072554;28;20599;-72
2023/05/10 05:22:15;;;;;;;28.33;19.53;;;14.40;99.90;;;;;;5073247;28;20628;-72
2023/05/10 05:24:40;;;;;;;27.57;19.30;;;14.30;99.90;;;;;;5072978;28;20168;-72
2023/05/10 05:27:06;;;;;;;29.33;20.70;;;14.40;99.90;;;;;;5072024;28;20172;-72
2023/05/10 05:29:32;;;;;;;28.10;19.03;;;14.40;99.90;;;;;;5054807;28;20172;-72
2023/05/10 05:31:58;;;;;;;27.03;19.77;;;14.30;99.90;;;;;;5072319;28;20183;-72
2023/05/10 05:34:24;;;;;;;28.37;19.20;;;14.40;99.90;;;;;;5072750;28;20222;-72
2023/05/10 05:36:50;;;;;;;25.57;18.13;;;14.50;99.90;;;;;;5072369;28;20644;-71
2023/05/10 05:39:15;;;;;;;23.83;17.83;;;14.60;99.90;;;;;;5072696;28;20598;-72
2023/05/10 05:41:42;;;;;;;22.70;17.67;;;14.70;99.90;;;;;;5053993;28;20571;-71
2023/05/10 05:44:07;;;;;;;22.97;16.90;;;14.70;99.90;;;;;;5054553;28;20180;-71
2023/05/10 05:46:33;;;;;;;16.93;13.37;;;14.60;99.90;;;;;;5071725;28;20574;-71
2023/05/10 05:48:59;;;;;;;14.70;11.40;;;14.50;99.90;;;;;;5072601;28;20218;-71
2023/05/10 05:51:25;;;;;;;15.57;11.50;;;14.40;99.90;;;;;;5071814;28;20204;-71
2023/05/10 05:53:50;;;;;;;14.53;10.50;;;14.30;99.90;;;;;;5071704;28;20382;-72
2023/05/10 05:56:17;;;;;;;17.07;11.87;;;14.20;99.90;;;;;;5071798;28;20175;-72
2023/05/10 05:58:43;;;;;;;21.03;12.33;;;14.20;99.90;;;;;;5053965;28;20177;-71
2023/05/10 06:01:09;;;;;;;16.43;11.73;;;14.20;99.90;;;;;;5071399;28;20202;-72
2023/05/10 06:03:34;;;;;;;15.47;11.87;;;14.60;99.90;;;;;;5072752;28;20205;-72
2023/05/10 06:06:00;;;;;;;15.43;12.00;;;15.30;99.90;;;;;;5072437;28;20172;-71
2023/05/10 06:08:26;;;;;;;18.48;12.65;;;15.50;99.90;;;;;;5072506;28;20184;-72
2023/05/10 06:10:51;;;;;;;23.47;11.80;;;15.60;99.90;;;;;;5072442;28;20173;-71
2023/05/10 06:13:17;;;;;;;24.03;12.87;;;15.50;99.90;;;;;;5072030;28;20179;-72
2023/05/10 06:15:42;;;;;;;15.33;11.83;;;15.50;99.90;;;;;;5071693;28;20212;-70
2023/05/10 06:18:08;;;;;;;14.97;11.60;;;15.70;99.90;;;;;;5072056;28;20224;-72
2023/05/10 06:20:34;;;;;;;20.77;12.67;;;15.90;99.90;;;;;;5071620;28;20594;-71
2023/05/10 06:22:59;;;;;;;18.20;13.67;;;15.80;99.90;;;;;;5071813;28;20640;-72
2023/05/10 06:25:27;;;;;;;17.30;14.00;;;15.60;99.90;;;;;;5053786;28;20181;-70
2023/05/10 06:27:57;;;;;;;19.10;13.60;;;15.50;99.90;;;;;;5071739;28;20616;-71
2023/05/10 06:30:27;;;;;;;20.47;14.73;;;15.50;99.90;;;;;;5072334;28;20184;-70
2023/05/10 06:32:53;;;;;;;20.85;15.00;;;15.30;99.90;;;;;;5071750;28;20180;-72
2023/05/10 06:35:19;;;;;;;21.40;14.50;;;15.30;99.90;;;;;;5071830;28;20214;-71
2023/05/10 06:37:44;;;;;;;17.97;11.23;;;15.20;99.90;;;;;;5053896;28;20169;-72
2023/05/10 06:40:10;;;;;;;15.23;10.50;;;15.10;99.90;;;;;;5072231;28;20172;-72
2023/05/10 06:42:36;;;;;;;11.43;9.17;;;15.10;99.90;;;;;;5054635;28;20218;-71
2023/05/10 06:45:02;;;;;;;11.17;8.27;;;14.80;99.90;;;;;;5075820;28;20172;-71
2023/05/10 06:47:27;;;;;;;12.00;8.00;;;14.80;99.90;;;;;;5075598;28;20176;-71
2023/05/10 06:49:53;;;;;;;9.90;7.67;;;14.80;99.90;;;;;;5075896;28;20635;-71
2023/05/10 06:52:19;;;;;;;11.33;8.13;;;14.70;99.90;;;;;;5075870;28;20649;-70
2023/05/10 06:54:44;;;;;;;15.83;9.07;;;14.30;99.90;;;;;;5056695;28;20254;-71
2023/05/10 06:57:10;;;;;;;13.87;8.83;;;14.20;99.90;;;;;;5075360;28;20682;-70
2023/05/10 06:59:36;;;;;;;15.60;9.83;;;14.20;99.90;;;;;;5074955;28;20176;-73
2023/05/10 07:02:02;;;;;;;18.47;10.67;;;14.20;99.90;;;;;;5075099;28;20508;-71
2023/05/10 07:04:28;;;;;;;17.67;10.67;;;14.20;99.90;;;;;;5075529;28;20212;-72
2023/05/10 07:06:53;;;;;;;17.30;10.50;;;14.20;99.90;;;;;;5075436;28;20188;-72
2023/05/10 07:09:19;;;;;;;15.97;10.83;;;14.20;99.90;;;;;;5075296;28;20282;-72
2023/05/10 07:11:45;;;;;;;21.17;11.10;;;13.90;99.90;;;;;;5073982;28;20259;-71
2023/05/10 07:14:10;;;;;;;17.43;11.27;;;14.00;99.90;;;;;;5057642;28;20667;-71
2023/05/10 07:16:36;;;;;;;18.93;11.03;;;14.00;99.90;;;;;;5075543;28;20189;-71
2023/05/10 07:19:02;;;;;;;22.80;12.10;;;14.10;99.90;;;;;;5075292;28;20180;-71
2023/05/10 07:21:28;;;;;;;21.07;11.90;;;13.90;99.90;;;;;;5053077;28;20226;-71
2023/05/10 07:23:54;;;;;;;22.10;11.70;;;13.80;99.90;;;;;;5055704;28;20172;-72
2023/05/10 07:26:20;;;;;;;20.67;11.63;;;13.80;99.90;;;;;;5055012;28;20169;-71
2023/05/10 07:28:46;;;;;;;20.07;11.30;;;13.90;99.90;;;;;;5055055;28;20173;-71
2023/05/10 07:31:12;;;;;;;23.63;12.60;;;13.90;99.90;;;;;;5054810;28;20268;-72
2023/05/10 07:33:38;;;;;;;17.70;11.97;;;14.20;99.90;;;;;;5055082;28;20208;-72
2023/05/10 07:36:03;;;;;;;18.67;12.23;;;14.10;99.90;;;;;;5055345;28;20657;-72
2023/05/10 07:38:29;;;;;;;20.00;10.10;;;14.10;99.90;;;;;;5054707;28;20574;-72
2023/05/10 07:40:55;;;;;;;20.47;10.50;;;13.90;99.90;;;;;;5052359;28;20170;-71
2023/05/10 07:43:20;;;;;;;19.10;10.73;;;13.70;99.90;;;;;;5054728;28;20225;-72
2023/05/10 07:45:46;;;;;;;18.33;10.10;;;13.60;99.90;;;;;;5055080;28;20176;-72
2023/05/10 07:48:11;;;;;;;18.97;10.00;;;13.60;99.90;;;;;;5054812;28;20570;-71
2023/05/10 07:50:37;;;;;;;17.27;9.90;;;13.60;99.90;;;;;;5054525;28;20177;-71
2023/05/10 07:53:02;;;;;;;18.87;10.90;;;13.60;99.90;;;;;;5051164;28;20560;-71
2023/05/10 07:55:28;;;;;;;15.87;10.13;;;13.50;99.90;;;;;;5054104;28;20205;-71
2023/05/10 07:57:54;;;;;;;14.07;10.60;;;13.60;99.90;;;;;;5054586;28;20169;-70
2023/05/10 08:00:20;;;;;;;15.43;10.10;;;13.60;99.90;;;;;;5054259;28;20750;-71
2023/05/10 08:02:47;;;;;;;18.17;10.07;;;13.70;99.90;;;;;;5050728;28;20180;-72
2023/05/10 08:05:13;;;;;;;16.10;10.17;;;13.80;99.90;;;;;;5054237;28;20724;-71
2023/05/10 08:07:39;;;;;;;13.37;9.03;;;14.00;99.90;;;;;;5054207;28;20165;-71
2023/05/10 08:10:05;;;;;;;15.30;10.03;;;14.10;99.90;;;;;;5053617;28;20193;-71
2023/05/10 08:12:31;;;;;;;12.70;8.90;;;14.40;99.90;;;;;;5052634;28;20184;-70
2023/05/10 08:14:57;;;;;;;17.87;9.40;;;14.60;99.90;;;;;;5053511;28;20212;-71
2023/05/10 08:17:22;;;;;;;15.90;8.93;;;14.50;99.90;;;;;;5053715;28;20246;-70
2023/05/10 08:19:48;;;;;;;13.47;8.40;;;14.30;99.90;;;;;;5059042;28;20696;-71
2023/05/10 08:22:13;;;;;;;12.97;8.53;;;14.40;99.90;;;;;;5073274;28;20165;-71
2023/05/10 08:24:39;;;;;;;13.53;8.70;;;14.50;99.90;;;;;;5073486;28;20242;-71
2023/05/10 08:27:05;;;;;;;10.70;7.83;;;14.90;99.90;;;;;;5073333;28;20179;-70
2023/05/10 08:29:31;;;;;;;9.63;7.60;;;15.10;99.90;;;;;;5055795;28;20271;-70
2023/05/10 08:31:57;;;;;;;8.90;6.80;;;15.40;99.90;;;;;;5073758;28;20724;-70
2023/05/10 08:34:23;;;;;;;9.03;7.00;;;15.80;99.90;;;;;;5073405;28;20228;-70
2023/05/10 08:36:48;;;;;;;8.60;6.23;;;15.80;96.90;;;;;;5073823;28;20247;-69
2023/05/10 08:39:14;;;;;;;9.47;6.17;;;15.70;92.20;;;;;;5073090;28;20218;-69
2023/05/10 08:41:43;;;;;;;10.83;6.50;;;15.70;95.00;;;;;;5072259;28;20227;-69
2023/05/10 08:44:09;;;;;;;11.90;6.13;;;15.90;96.60;;;;;;5073661;28;20210;-70
2023/05/10 08:46:39;;;;;;;11.82;6.70;;;16.20;89.10;;;;;;5073365;28;20181;-70
2023/05/10 08:49:07;;;;;;;8.02;6.43;;;16.30;83.80;;;;;;5072974;28;20800;-70
2023/05/10 08:51:36;;;;;;;9.35;6.75;;;16.60;67.60;;;;;;5072735;28;20176;-69
2023/05/10 08:54:03;;;;;;;8.77;6.63;;;16.30;66.90;;;;;;5072837;28;20295;-69
2023/05/10 08:56:29;;;;;;;10.35;6.97;;;16.30;76.60;;;;;;5072657;28;20644;-69
2023/05/10 08:58:56;;;;;;;10.25;6.97;;;16.30;70.50;;;;;;5072991;28;20176;-70
2023/05/10 09:01:22;;;;;;;14.68;7.20;;;16.20;79.00;;;;;;5073307;28;20175;-70
2023/05/10 09:03:48;;;;;;;13.38;6.80;;;16.20;79.30;;;;;;5073061;28;20271;-69
2023/05/10 09:06:14;;;;;;;8.75;6.75;;;16.10;83.20;;;;;;5071399;28;20686;-69
2023/05/10 09:08:42;;;;;;;9.38;6.97;;;16.10;80.80;;;;;;5072193;28;20173;-68
2023/05/10 09:11:09;;;;;;;9.88;7.35;;;15.90;82.20;;;;;;5072551;28;20178;-71
2023/05/10 09:13:36;;;;;;;10.03;7.07;;;15.80;91.70;;;;;;5072196;28;20248;-71
2023/05/10 09:16:02;;;;;;;12.53;6.97;;;15.60;98.80;;;;;;5072894;28;20246;-72
2023/05/10 09:18:28;;;;;;;9.52;8.23;;;15.50;99.90;;;;;;5052808;28;20404;-67
2023/05/10 09:20:54;;;;;;;10.10;7.97;;;15.60;99.90;;;;;;5053435;28;20270;-68
2023/05/10 09:23:20;;;;;;;9.95;7.53;;;15.50;99.90;;;;;;5067858;28;20249;-68
2023/05/10 09:25:46;;;;;;;8.37;7.30;;;15.40;99.90;;;;;;5072717;28;20557;-68
2023/05/10 09:28:12;;;;;;;11.13;7.60;;;15.20;99.90;;;;;;5073342;28;20570;-69
2023/05/10 09:30:37;;;;;;;7.90;7.10;;;15.10;99.90;;;;;;5072140;28;20170;-71
2023/05/10 09:33:03;;;;;;;10.63;7.40;;;14.90;99.90;;;;;;5071917;28;20636;-69
2023/05/10 09:35:31;;;;;;;9.10;7.60;;;14.70;99.90;;;;;;5072777;28;20204;-69
2023/05/10 09:38:00;;;;;;;8.43;6.57;;;14.70;99.90;;;;;;5072974;28;20188;-69
2023/05/10 09:40:27;;;;;;;7.30;6.47;;;14.60;99.90;;;;;;5072259;28;20263;-70
2023/05/10 09:42:57;;;;;;;8.47;6.67;;;14.60;99.90;;;;;;5072335;28;20644;-70
2023/05/10 09:45:25;;;;;;;7.57;6.87;;;14.70;99.90;;;;;;5055290;28;20169;-70
2023/05/10 09:47:51;;;;;;;6.53;5.73;;;14.70;99.90;;;;;;5072608;28;20165;-69
2023/05/10 09:50:17;;;;;;;8.97;6.67;;;14.80;99.90;;;;;;5071979;28;20226;-69
2023/05/10 09:52:54;;;;;;;7.97;6.17;;;14.80;99.90;;;;;;5072516;28;20176;-71
2023/05/10 09:55:23;;;;;;;7.70;6.43;;;14.60;99.90;;;;;;5071793;28;20200;-70
2023/05/10 09:57:57;;;;;;;6.97;6.27;;;14.70;99.90;;;;;;5072461;28;20179;-69
2023/05/10 10:00:23;;;;;;;7.03;6.33;;;14.80;99.90;;;;;;5072556;28;20656;-70
2023/05/10 10:02:57;;;;;;;7.47;6.10;;;14.80;99.90;;;;;;5054552;28;20173;-69
2023/05/10 10:05:34;;;;;;;7.20;6.20;;;15.00;99.90;;;;;;5053420;28;20538;-69
2023/05/10 10:08:02;;;;;;;7.10;6.40;;;15.10;99.90;;;;;;5072453;28;20160;-70
2023/05/10 10:10:28;;;;;;;6.77;6.07;;;15.00;99.90;;;;;;5072238;28;20232;-69
2023/05/10 10:12:54;;;;;;;7.17;6.47;;;15.00;99.90;;;;;;5072180;28;20165;-69
2023/05/10 10:15:21;;;;;;;6.70;6.10;;;15.00;99.90;;;;;;5072697;28;20242;-70
2023/05/10 10:17:49;;;;;;;8.03;6.57;;;14.70;99.90;;;;;;5074783;28;20188;-70
2023/05/10 10:20:16;;;;;;;7.30;6.60;;;14.80;99.90;;;;;;5075483;28;20220;-71
2023/05/10 10:22:43;;;;;;;8.43;6.60;;;14.70;99.90;;;;;;5076346;28;20179;-69
2023/05/10 10:25:11;;;;;;;7.60;6.80;;;14.80;99.90;;;;;;5076496;28;20255;-69
2023/05/10 10:27:42;;;;;;;8.63;6.97;;;14.80;99.90;;;;;;5076257;28;20188;-70
2023/05/10 10:30:16;;;;;;;6.90;6.23;;;15.00;99.90;;;;;;5076327;28;20221;-70
2023/05/10 10:33:05;;;;;;;7.17;6.53;;;15.10;99.90;;;;;;5058327;28;20560;-70
2023/05/10 10:35:31;;;;;;;7.63;6.20;;;15.20;99.90;;;;;;5076124;28;20212;-69
2023/05/10 10:37:57;;;;;;;8.07;6.70;;;15.30;99.90;;;;;;5076069;28;20164;-69
2023/05/10 10:40:31;;;;;;;7.60;6.90;;;15.30;99.90;;;;;;5075871;28;20168;-70
2023/05/10 10:42:57;;;;;;;6.73;6.13;;;15.50;99.90;;;;;;5057902;28;20529;-71
2023/05/10 10:45:24;;;;;;;7.53;6.83;;;15.50;99.90;;;;;;5075619;28;20169;-69
2023/05/10 10:48:21;;;;;;;8.53;6.83;;;15.70;99.90;;;;;;5075546;28;20658;-70
2023/05/10 10:50:46;;;;;;;8.48;7.07;;;15.80;99.90;;;;;;4974569;28;20203;-71
2023/05/10 10:53:12;;;;;;;7.63;6.82;;;15.80;99.90;;;;;;4973552;28;20651;-70
2023/05/10 10:55:48;;;;;;;7.33;6.70;;;16.00;99.90;;;;;;4973658;28;20219;-69
2023/05/10 10:58:32;;;;;;;7.60;6.90;;;16.00;99.90;;;;;;4973844;28;20176;-70
2023/05/10 11:01:17;;;;;;;8.13;6.72;;;16.40;99.70;;;;;;4959515;28;20196;-70
2023/05/10 11:04:15;;;;;;;9.50;6.93;;;16.20;98.00;;;;;;4974219;28;20238;-70
2023/05/10 11:06:42;;;;;;;8.70;7.80;;;15.80;99.90;;;;;;4973879;28;20546;-71
2023/05/10 11:09:09;;;;;;;14.80;8.83;;;15.80;99.90;;;;;;4973792;28;20172;-70
2023/05/10 11:11:35;;;;;;;11.73;9.00;;;15.40;99.90;;;;;;4972737;28;20184;-68
2023/05/10 11:14:06;;;;;;;11.23;9.73;;;15.10;99.90;;;;;;4973503;28;20208;-71
2023/05/10 11:16:42;;;;;;;10.90;9.53;;;15.20;99.90;;;;;;4973511;28;20250;-70
2023/05/10 11:19:12;;;;;;;10.17;9.17;;;15.50;99.90;;;;;;4973668;28;20332;-70
2023/05/10 11:22:11;;;;;;;11.37;9.90;;;15.40;99.90;;;;;;4973360;28;20708;-72
2023/05/10 11:24:37;;;;;;;11.33;8.47;;;15.60;99.90;;;;;;4974113;28;20180;-72
2023/05/10 11:27:02;;;;;;;9.37;7.73;;;15.60;99.90;;;;;;5002319;28;20671;-73
2023/05/10 11:29:28;;;;;;;8.17;7.37;;;15.40;99.90;;;;;;5043814;28;20173;-72
2023/05/10 11:31:57;;;;;;;7.47;6.87;;;15.60;99.90;;;;;;5053215;28;20237;-72
2023/05/10 11:34:33;;;;;;;7.70;7.00;;;15.70;99.90;;;;;;5053630;28;20213;-70
2023/05/10 11:37:00;;;;;;;8.10;7.30;;;15.80;99.90;;;;;;5055065;28;20212;-71
2023/05/10 11:39:30;;;;;;;9.07;7.18;;;16.00;99.90;;;;;;5052290;28;20177;-70
2023/05/10 11:41:56;;;;;;;7.05;6.22;;;16.50;99.90;;;;;;5053855;28;20174;-72
2023/05/10 11:44:22;;;;;;;7.20;6.50;;;16.90;98.80;;;;;;5054662;28;20204;-70
2023/05/10 11:46:49;;;;;;;6.50;5.95;;;17.20;87.80;;;;;;5049926;28;20177;-72
2023/05/10 11:49:14;;;;;;;6.75;6.13;;;17.40;66.60;;;;;;5054110;28;20169;-70
2023/05/10 11:51:42;;;;;;;7.05;6.45;;;17.70;52.80;;;;;;5047395;28;20177;-70
2023/05/10 11:54:09;;;;;;;7.10;6.40;;;17.40;52.60;;;;;;5049043;28;20257;-71
2023/05/10 11:56:35;;;;;;;7.10;6.50;;;17.20;58.70;;;;;;5053765;28;20259;-70
2023/05/10 11:59:02;;;;;;;7.88;7.10;;;17.10;75.40;;;;;;5052627;28;20694;-71
2023/05/10 12:01:28;;;;;;;7.75;6.97;;;17.20;80.80;;;;;;5052579;28;20521;-71
2023/05/10 12:04:15;;;;;;;6.40;5.90;;;17.50;71.10;;;;;;5053941;28;20302;-72
2023/05/10 12:06:41;;;;;;;8.63;6.72;;;17.50;57.80;;;;;;5051526;28;20629;-72
2023/05/10 12:09:07;;;;;;;7.35;6.57;;;17.20;55.10;;;;;;5053136;28;20169;-71
2023/05/10 12:11:37;;;;;;;7.43;6.70;;;17.30;52.20;;;;;;5053943;28;20173;-71
2023/05/10 12:14:05;;;;;;;9.90;7.35;;;17.40;65.30;;;;;;5052140;28;20243;-71
2023/05/10 12:16:30;;;;;;;7.90;7.20;;;17.60;55.70;;;;;;5051770;28;20201;-70
2023/05/10 12:18:58;;;;;;;7.75;6.93;;;17.70;50.90;;;;;;5053891;28;20636;-71
2023/05/10 12:21:24;;;;;;;7.85;7.07;;;17.80;54.00;;;;;;5052112;28;20257;-71
2023/05/10 12:23:52;;;;;;;10.10;7.60;;;17.90;50.60;;;;;;5053451;28;20208;-71
2023/05/10 12:26:18;;;;;;;8.57;7.07;;;17.80;52.10;;;;;;5053668;28;20173;-71
2023/05/10 12:28:44;;;;;;;8.15;7.35;;;18.00;49.50;;;;;;5053191;28;20172;-70
2023/05/10 12:31:10;;;;;;;7.97;7.18;;;18.30;36.60;;;;;;5051293;28;20260;-69
2023/05/10 12:33:42;;;;;;;8.57;7.68;;;18.20;41.00;;;;;;5051869;28;20656;-69
2023/05/10 12:36:09;;;;;;;7.85;7.18;;;17.90;34.70;;;;;;5052170;28;20205;-70
2023/05/10 12:38:38;;;;;;;10.18;7.90;;;18.10;41.90;;;;;;5052986;28;20169;-70